createdAt,value
2022-12-01T00:00:14.805Z,100969.94
2022-12-01T00:03:17.451Z,100964.78
2022-12-01T00:06:21.470Z,100981.16
2022-12-01T00:09:42.559Z,100970.38
2022-12-01T00:12:44.937Z,100979.31
2022-12-01T00:15:47.993Z,100973.50
2022-12-01T00:18:52.175Z,100977.25
2022-12-01T00:21:54.697Z,100975.63
2022-12-01T00:24:57.356Z,100976.75
2022-12-01T00:28:00.038Z,100974.12
2022-12-01T00:31:08.153Z,100978.69
2022-12-01T00:34:26.088Z,100975.13
2022-12-01T00:37:31.084Z,100984.16
2022-12-01T00:40:35.380Z,100981.56
2022-12-01T00:43:37.823Z,100994.34
2022-12-01T00:46:40.430Z,100988.00
2022-12-01T00:49:43.769Z,100990.72
2022-12-01T00:52:46.499Z,100990.56
2022-12-01T00:55:48.774Z,100996.22
2022-12-01T00:58:51.204Z,100996.03
2022-12-01T01:01:53.369Z,100998.44
2022-12-01T01:04:56.113Z,100986.31
2022-12-01T01:07:58.354Z,100990.16
2022-12-01T01:11:01.726Z,101000.22
2022-12-01T01:14:04.367Z,100987.81
2022-12-01T01:17:07.023Z,100980.47
2022-12-01T01:20:11.237Z,100991.94
2022-12-01T01:23:13.794Z,100986.75
2022-12-01T01:26:21.829Z,100985.66
2022-12-01T01:29:24.305Z,100983.16
2022-12-01T01:32:26.652Z,100987.59
2022-12-01T01:35:29.096Z,100990.44
2022-12-01T01:38:31.991Z,100989.44
2022-12-01T01:41:34.470Z,100981.88
2022-12-01T01:44:57.579Z,100983.94
2022-12-01T01:48:01.427Z,100982.19
2022-12-01T01:51:04.303Z,100976.75
2022-12-01T01:54:15.519Z,100987.47
2022-12-01T01:57:25.889Z,100980.69
2022-12-01T02:00:29.304Z,100988.41
2022-12-01T02:03:37.106Z,100985.13
2022-12-01T02:06:39.356Z,100971.28
2022-12-01T02:09:41.912Z,100986.09
2022-12-01T02:13:05.768Z,100972.13
2022-12-01T02:16:26.560Z,100979.06
2022-12-01T02:19:47.936Z,100978.66
2022-12-01T02:23:16.966Z,100985.09
2022-12-01T02:26:29.501Z,100980.19
2022-12-01T02:29:57.138Z,100978.47
2022-12-01T02:32:59.228Z,100973.28
2022-12-01T02:36:17.634Z,100981.19
2022-12-01T02:39:34.590Z,100979.59
2022-12-01T02:42:52.500Z,100969.47
2022-12-01T02:49:17.075Z,100967.00
2022-12-01T02:52:23.712Z,100970.28
2022-12-01T02:55:26.112Z,100967.34
2022-12-01T02:58:28.296Z,100962.16
2022-12-01T03:01:35.643Z,100961.47
2022-12-01T03:04:40.935Z,100968.38
2022-12-01T03:07:59.324Z,100971.81
2022-12-01T03:11:02.946Z,100974.41
2022-12-01T03:14:18.535Z,100976.66
2022-12-01T03:17:29.960Z,100974.25
2022-12-01T03:20:40.032Z,100970.06
2022-12-01T03:23:47.214Z,100967.72
2022-12-01T03:26:56.885Z,100966.13
2022-12-01T03:30:01.585Z,100966.38
2022-12-01T03:33:09.803Z,100962.00
2022-12-01T03:36:23.438Z,100965.59
2022-12-01T03:39:37.318Z,100952.72
2022-12-01T03:42:46.539Z,100953.31
2022-12-01T03:46:09.157Z,100950.94
2022-12-01T03:49:13.876Z,100947.53
2022-12-01T03:52:20.429Z,100943.03
2022-12-01T03:55:31.690Z,100946.41
2022-12-01T03:58:42.903Z,100950.88
2022-12-01T04:01:45.692Z,100952.44
2022-12-01T04:04:48.151Z,100948.72
2022-12-01T04:07:50.464Z,100952.69
2022-12-01T04:10:52.948Z,100943.44
2022-12-01T04:13:55.116Z,100939.44
2022-12-01T04:16:57.851Z,100929.84
2022-12-01T04:20:00.673Z,100933.50
2022-12-01T04:23:03.529Z,100927.69
2022-12-01T04:26:06.692Z,100927.34
2022-12-01T04:29:11.679Z,100926.22
2022-12-01T04:32:14.902Z,100937.09
2022-12-01T04:35:17.326Z,100945.50
2022-12-01T04:38:19.422Z,100952.50
2022-12-01T04:41:21.941Z,100956.19
2022-12-01T04:44:24.163Z,100962.75
2022-12-01T04:47:26.563Z,100972.13
2022-12-01T04:50:30.120Z,100969.97
2022-12-01T04:53:32.970Z,100962.13
2022-12-01T04:56:35.967Z,100959.75
2022-12-01T04:59:38.827Z,100964.06
2022-12-01T05:02:43.950Z,100978.12
2022-12-01T05:05:47.094Z,100973.38
2022-12-01T05:08:50.747Z,100971.00
2022-12-01T05:11:53.608Z,100968.94
2022-12-01T05:14:56.381Z,100964.81
2022-12-01T05:18:01.981Z,100965.34
2022-12-01T05:21:07.055Z,100971.63
2022-12-01T05:24:12.307Z,100958.87
2022-12-01T05:27:16.025Z,100961.34
2022-12-01T05:30:18.803Z,100962.87
2022-12-01T05:33:22.905Z,100964.38
2022-12-01T05:36:27.258Z,100956.66
2022-12-01T05:39:29.834Z,100959.37
2022-12-01T05:42:33.275Z,100962.16
2022-12-01T05:45:39.746Z,100960.84
2022-12-01T05:48:42.541Z,100965.19
2022-12-01T05:51:44.724Z,100958.75
2022-12-01T05:54:47.367Z,100963.19
2022-12-01T05:57:49.536Z,100968.31
2022-12-01T06:00:52.769Z,100969.22
2022-12-01T06:03:55.499Z,100975.06
2022-12-01T06:06:58.175Z,100979.31
2022-12-01T06:10:02.531Z,100978.59
2022-12-01T06:13:05.425Z,100986.13
2022-12-01T06:16:09.368Z,100984.38
2022-12-01T06:19:11.980Z,100985.47
2022-12-01T06:22:15.083Z,100999.34
2022-12-01T06:25:19.939Z,100994.22
2022-12-01T06:28:22.736Z,101003.63
2022-12-01T06:31:26.649Z,101007.94
2022-12-01T06:34:29.703Z,101000.97
2022-12-01T06:37:32.785Z,100999.06
2022-12-01T06:40:37.579Z,100995.53
2022-12-01T06:43:42.093Z,100993.84
2022-12-01T06:46:46.899Z,100984.09
2022-12-01T06:49:49.689Z,100985.66
2022-12-01T06:52:52.992Z,100981.38
2022-12-01T06:56:04.574Z,100986.44
2022-12-01T06:59:07.747Z,100987.09
2022-12-01T07:02:13.719Z,100989.63
2022-12-01T07:05:16.914Z,100993.22
2022-12-01T07:08:19.129Z,100994.13
2022-12-01T07:11:23.717Z,100992.53
2022-12-01T07:14:26.901Z,100995.78
2022-12-01T07:17:29.861Z,100986.00
2022-12-01T07:20:32.029Z,100993.06
2022-12-01T07:23:34.884Z,100993.94
2022-12-01T07:26:37.213Z,100999.25
2022-12-01T07:29:40.437Z,101007.94
2022-12-01T07:32:42.623Z,101003.28
2022-12-01T07:35:45.202Z,101002.56
2022-12-01T07:38:48.002Z,101001.78
2022-12-01T07:41:50.872Z,101007.50
2022-12-01T07:44:53.187Z,101000.88
2022-12-01T07:47:55.673Z,100996.87
2022-12-01T07:50:57.877Z,101001.78
2022-12-01T07:54:06.411Z,100997.03
2022-12-01T07:57:08.711Z,101000.22
2022-12-01T08:00:11.866Z,101008.31
2022-12-01T08:03:14.270Z,101006.16
2022-12-01T08:06:17.691Z,101018.09
2022-12-01T08:09:20.993Z,101011.84
2022-12-01T08:12:24.478Z,101008.12
2022-12-01T08:15:26.801Z,101018.00
2022-12-01T08:18:29.482Z,101013.97
2022-12-01T08:21:32.125Z,101011.59
2022-12-01T08:24:34.572Z,101012.03
2022-12-01T08:27:37.298Z,100999.37
2022-12-01T08:30:39.881Z,101006.69
2022-12-01T08:33:42.233Z,101006.25
2022-12-01T08:36:44.735Z,101006.44
2022-12-01T08:39:47.483Z,101009.69
2022-12-01T08:42:52.194Z,101011.94
2022-12-01T08:45:57.134Z,101013.09
2022-12-01T08:49:00.601Z,101016.56
2022-12-01T08:52:02.812Z,101014.72
2022-12-01T08:55:06.465Z,101013.97
2022-12-01T08:58:08.734Z,101009.19
2022-12-01T09:01:13.415Z,101013.56
2022-12-01T09:04:15.636Z,101015.38
2022-12-01T09:07:25.864Z,101017.50
2022-12-01T09:10:28.783Z,101019.03
2022-12-01T09:13:35.625Z,101014.94
2022-12-01T09:16:38.189Z,101015.88
2022-12-01T09:19:40.864Z,101011.81
2022-12-01T09:22:43.029Z,101001.44
2022-12-01T09:25:45.629Z,101001.00
2022-12-01T09:28:59.096Z,101002.03
2022-12-01T09:32:01.672Z,100992.94
2022-12-01T09:35:03.988Z,100987.41
2022-12-01T09:38:06.733Z,100991.59
2022-12-01T09:41:23.771Z,100986.06
2022-12-01T09:44:26.207Z,100991.41
2022-12-01T09:47:31.675Z,101000.25
2022-12-01T09:50:35.954Z,100993.59
2022-12-01T09:53:38.816Z,100991.72
2022-12-01T09:56:47.155Z,100986.06
2022-12-01T09:59:51.812Z,100984.84
2022-12-01T10:03:01.961Z,100980.75
2022-12-01T10:06:32.035Z,100979.31
2022-12-01T10:09:46.599Z,100971.97
2022-12-01T10:12:50.124Z,100968.34
2022-12-01T10:16:29.104Z,100980.59
2022-12-01T10:19:50.113Z,100972.84
2022-12-01T10:23:28.692Z,100969.06
2022-12-01T10:27:08.698Z,100976.59
2022-12-01T10:30:17.195Z,100960.75
2022-12-01T10:33:24.384Z,100958.66
2022-12-01T10:36:27.732Z,100952.91
2022-12-01T10:39:45.009Z,100955.47
2022-12-01T10:42:48.943Z,100949.91
2022-12-01T10:45:52.400Z,100945.53
2022-12-01T10:48:59.648Z,100942.75
2022-12-01T10:52:02.422Z,100942.75
2022-12-01T10:55:29.090Z,100940.72
2022-12-01T10:58:43.850Z,100940.22
2022-12-01T11:01:48.168Z,100946.84
2022-12-01T11:05:03.078Z,100943.62
2022-12-01T11:08:06.166Z,100935.66
2022-12-01T11:11:30.492Z,100929.69
2022-12-01T11:14:49.681Z,100929.06
2022-12-01T11:17:57.926Z,100925.31
2022-12-01T11:21:26.319Z,100927.97
2022-12-01T11:28:37.847Z,100907.75
2022-12-01T11:31:50.758Z,100921.91
2022-12-01T11:35:02.529Z,100913.38
2022-12-01T11:38:29.293Z,100905.56
2022-12-01T11:41:36.395Z,100905.47
2022-12-01T11:45:17.191Z,100901.75
2022-12-01T11:48:20.981Z,100895.56
2022-12-01T11:51:31.856Z,100905.19
2022-12-01T11:54:34.436Z,100899.72
2022-12-01T11:57:43.222Z,100901.56
2022-12-01T12:00:54.542Z,100900.38
2022-12-01T12:04:00.584Z,100891.75
2022-12-01T12:07:20.534Z,100892.44
2022-12-01T12:11:10.528Z,100895.03
2022-12-01T12:14:38.673Z,100895.81
2022-12-01T12:17:54.465Z,100895.81
2022-12-01T12:21:44.017Z,100883.59
2022-12-01T12:25:10.741Z,100886.16
2022-12-01T12:28:28.070Z,100884.44
2022-12-01T12:31:49.744Z,100886.09
2022-12-01T12:35:28.115Z,100878.25
2022-12-01T12:39:19.256Z,100884.75
2022-12-01T12:42:32.922Z,100888.09
2022-12-01T12:49:46.735Z,100884.19
2022-12-01T12:52:57.711Z,100880.72
2022-12-01T12:56:05.804Z,100879.03
2022-12-01T12:59:18.595Z,100875.38
2022-12-01T13:02:36.353Z,100881.44
2022-12-01T13:05:50.570Z,100877.13
2022-12-01T13:09:21.017Z,100880.59
2022-12-01T13:12:40.113Z,100868.94
2022-12-01T13:15:44.702Z,100869.88
2022-12-01T13:19:04.784Z,100867.06
2022-12-01T13:22:16.510Z,100879.06
2022-12-01T13:25:38.318Z,100872.06
2022-12-01T13:28:53.077Z,100876.28
2022-12-01T13:31:55.634Z,100875.94
2022-12-01T13:34:59.145Z,100878.13
2022-12-01T13:38:26.345Z,100877.87
2022-12-01T13:41:33.536Z,100877.28
2022-12-01T13:44:50.485Z,100886.03
2022-12-01T13:47:55.174Z,100880.72
2022-12-01T13:51:02.600Z,100879.31
2022-12-01T13:54:29.089Z,100879.06
2022-12-01T13:57:34.207Z,100869.19
2022-12-01T14:00:36.564Z,100872.78
2022-12-01T14:03:40.787Z,100878.72
2022-12-01T14:06:53.043Z,100877.44
2022-12-01T14:10:07.372Z,100868.88
2022-12-01T14:13:22.592Z,100883.03
2022-12-01T14:16:42.653Z,100874.47
2022-12-01T14:19:52.206Z,100866.22
2022-12-01T14:23:18.505Z,100870.13
2022-12-01T14:26:23.358Z,100867.44
2022-12-01T14:29:30.859Z,100870.25
2022-12-01T14:32:33.098Z,100870.13
2022-12-01T14:35:39.121Z,100867.03
2022-12-01T14:38:44.914Z,100877.59
2022-12-01T14:41:58.603Z,100870.87
2022-12-01T14:45:04.808Z,100870.28
2022-12-01T14:48:25.610Z,100870.63
2022-12-01T14:51:33.536Z,100869.44
2022-12-01T14:54:48.080Z,100872.28
2022-12-01T14:58:01.096Z,100881.31
2022-12-01T15:01:06.810Z,100882.62
2022-12-01T15:04:09.089Z,100878.09
2022-12-01T15:07:12.751Z,100874.66
2022-12-01T15:10:36.987Z,100872.16
2022-12-01T15:13:39.578Z,100879.53
2022-12-01T15:16:43.595Z,100879.09
2022-12-01T15:19:46.521Z,100878.00
2022-12-01T15:22:51.153Z,100875.53
2022-12-01T15:25:55.477Z,100879.19
2022-12-01T15:29:19.360Z,100873.31
2022-12-01T15:32:24.949Z,100879.25
2022-12-01T15:35:27.485Z,100879.47
2022-12-01T15:38:34.728Z,100870.16
2022-12-01T15:41:40.392Z,100871.84
2022-12-01T15:44:42.852Z,100876.09
2022-12-01T15:47:48.063Z,100873.81
2022-12-01T15:51:03.287Z,100888.63
2022-12-01T15:54:05.672Z,100873.12
2022-12-01T15:57:12.911Z,100881.78
2022-12-01T16:00:20.639Z,100880.19
2022-12-01T16:03:23.569Z,100881.03
2022-12-01T16:06:35.710Z,100876.00
2022-12-01T16:10:00.591Z,100882.06
2022-12-01T16:13:53.435Z,100882.50
2022-12-01T16:25:38.468Z,100881.06
2022-12-01T17:44:36.987Z,100902.91
2022-12-01T17:48:43.003Z,100897.41
2022-12-01T17:59:57.852Z,100904.00
2022-12-01T18:07:35.575Z,100905.06
2022-12-01T18:24:29.325Z,100908.19
2022-12-01T18:34:53.074Z,100906.88
2022-12-01T18:52:44.631Z,100919.28
2022-12-01T18:56:28.816Z,100919.31
2022-12-01T19:03:25.879Z,100919.47
2022-12-01T19:06:51.976Z,100920.81
2022-12-01T19:10:10.163Z,100917.25
2022-12-01T19:20:30.036Z,100921.13
2022-12-01T19:28:01.149Z,100920.81
2022-12-01T19:31:40.336Z,100928.13
2022-12-01T19:38:54.844Z,100930.06
